sensor_id;sensor_type;location;lat;lon;timestamp;P1;durP1;ratioP1;P2;durP2;ratioP2
6251;SDS011;3159;52.414;9.784;2022-11-06T00:00:45;5.07;;;2.70;;
6251;SDS011;3159;52.414;9.784;2022-11-06T00:03:11;3.80;;;2.10;;
6251;SDS011;3159;52.414;9.784;2022-11-06T00:05:39;3.73;;;2.30;;
6251;SDS011;3159;52.414;9.784;2022-11-06T00:08:25;3.73;;;2.50;;
6251;SDS011;3159;52.414;9.784;2022-11-06T00:10:55;4.80;;;2.17;;
6251;SDS011;3159;52.414;9.784;2022-11-06T00:13:22;4.73;;;2.57;;
6251;SDS011;3159;52.414;9.784;2022-11-06T00:15:51;5.97;;;2.50;;
6251;SDS011;3159;52.414;9.784;2022-11-06T00:18:18;5.93;;;2.50;;
6251;SDS011;3159;52.414;9.784;2022-11-06T00:20:45;5.07;;;2.67;;
6251;SDS011;3159;52.414;9.784;2022-11-06T00:23:11;4.07;;;2.30;;
6251;SDS011;3159;52.414;9.784;2022-11-06T00:25:39;6.07;;;2.60;;
6251;SDS011;3159;52.414;9.784;2022-11-06T00:28:07;7.77;;;2.50;;
6251;SDS011;3159;52.414;9.784;2022-11-06T00:30:34;2.40;;;2.13;;
6251;SDS011;3159;52.414;9.784;2022-11-06T00:33:02;3.30;;;2.40;;
6251;SDS011;3159;52.414;9.784;2022-11-06T00:35:29;4.43;;;2.53;;
6251;SDS011;3159;52.414;9.784;2022-11-06T00:37:56;5.43;;;2.77;;
6251;SDS011;3159;52.414;9.784;2022-11-06T00:40:23;5.67;;;2.90;;
6251;SDS011;3159;52.414;9.784;2022-11-06T00:42:53;3.00;;;2.40;;
6251;SDS011;3159;52.414;9.784;2022-11-06T00:45:21;5.33;;;2.83;;
6251;SDS011;3159;52.414;9.784;2022-11-06T00:47:48;4.83;;;2.73;;
6251;SDS011;3159;52.414;9.784;2022-11-06T00:50:16;4.63;;;2.47;;
6251;SDS011;3159;52.414;9.784;2022-11-06T00:52:43;4.03;;;2.50;;
6251;SDS011;3159;52.414;9.784;2022-11-06T00:55:10;5.50;;;2.50;;
6251;SDS011;3159;52.414;9.784;2022-11-06T00:57:37;3.10;;;2.47;;
6251;SDS011;3159;52.414;9.784;2022-11-06T01:00:04;6.07;;;3.40;;
6251;SDS011;3159;52.414;9.784;2022-11-06T01:02:32;3.73;;;2.33;;
6251;SDS011;3159;52.414;9.784;2022-11-06T01:04:59;2.87;;;2.30;;
6251;SDS011;3159;52.414;9.784;2022-11-06T01:07:27;3.60;;;2.47;;
6251;SDS011;3159;52.414;9.784;2022-11-06T01:09:54;3.27;;;2.70;;
6251;SDS011;3159;52.414;9.784;2022-11-06T01:12:21;7.63;;;2.87;;
6251;SDS011;3159;52.414;9.784;2022-11-06T01:14:48;4.17;;;2.20;;
6251;SDS011;3159;52.414;9.784;2022-11-06T01:17:15;4.80;;;3.07;;
6251;SDS011;3159;52.414;9.784;2022-11-06T01:19:42;7.00;;;2.97;;
6251;SDS011;3159;52.414;9.784;2022-11-06T01:22:09;4.20;;;2.97;;
6251;SDS011;3159;52.414;9.784;2022-11-06T01:24:37;6.40;;;2.90;;
6251;SDS011;3159;52.414;9.784;2022-11-06T01:27:04;6.03;;;2.73;;
6251;SDS011;3159;52.414;9.784;2022-11-06T01:29:31;4.73;;;2.70;;
6251;SDS011;3159;52.414;9.784;2022-11-06T01:31:58;7.87;;;3.23;;
6251;SDS011;3159;52.414;9.784;2022-11-06T01:34:25;3.23;;;2.63;;
6251;SDS011;3159;52.414;9.784;2022-11-06T01:36:52;7.33;;;3.03;;
6251;SDS011;3159;52.414;9.784;2022-11-06T01:39:19;3.80;;;2.67;;
6251;SDS011;3159;52.414;9.784;2022-11-06T01:41:47;4.10;;;2.70;;
6251;SDS011;3159;52.414;9.784;2022-11-06T01:47:22;5.53;;;2.83;;
6251;SDS011;3159;52.414;9.784;2022-11-06T01:49:50;8.00;;;3.13;;
6251;SDS011;3159;52.414;9.784;2022-11-06T01:52:21;4.33;;;2.70;;
6251;SDS011;3159;52.414;9.784;2022-11-06T01:54:51;5.27;;;2.70;;
6251;SDS011;3159;52.414;9.784;2022-11-06T01:57:22;3.10;;;2.63;;
6251;SDS011;3159;52.414;9.784;2022-11-06T01:59:49;3.27;;;2.60;;
6251;SDS011;3159;52.414;9.784;2022-11-06T02:02:18;6.17;;;2.50;;
6251;SDS011;3159;52.414;9.784;2022-11-06T02:04:46;4.87;;;2.73;;
6251;SDS011;3159;52.414;9.784;2022-11-06T02:07:16;3.67;;;2.60;;
6251;SDS011;3159;52.414;9.784;2022-11-06T02:09:43;3.33;;;2.63;;
6251;SDS011;3159;52.414;9.784;2022-11-06T02:12:13;4.37;;;2.60;;
6251;SDS011;3159;52.414;9.784;2022-11-06T02:14:53;5.27;;;3.20;;
6251;SDS011;3159;52.414;9.784;2022-11-06T02:17:33;5.17;;;2.83;;
6251;SDS011;3159;52.414;9.784;2022-11-06T02:20:10;6.17;;;2.93;;
6251;SDS011;3159;52.414;9.784;2022-11-06T02:22:49;3.93;;;2.93;;
6251;SDS011;3159;52.414;9.784;2022-11-06T02:25:32;4.17;;;2.73;;
6251;SDS011;3159;52.414;9.784;2022-11-06T02:28:14;5.67;;;2.73;;
6251;SDS011;3159;52.414;9.784;2022-11-06T02:30:48;4.70;;;2.63;;
6251;SDS011;3159;52.414;9.784;2022-11-06T02:33:17;4.33;;;2.93;;
6251;SDS011;3159;52.414;9.784;2022-11-06T02:35:48;4.17;;;2.80;;
6251;SDS011;3159;52.414;9.784;2022-11-06T02:38:19;7.00;;;2.80;;
6251;SDS011;3159;52.414;9.784;2022-11-06T02:40:49;5.60;;;3.30;;
6251;SDS011;3159;52.414;9.784;2022-11-06T02:43:22;5.13;;;3.60;;
6251;SDS011;3159;52.414;9.784;2022-11-06T02:45:54;4.37;;;3.27;;
6251;SDS011;3159;52.414;9.784;2022-11-06T02:48:23;3.77;;;3.13;;
6251;SDS011;3159;52.414;9.784;2022-11-06T02:50:54;5.30;;;3.23;;
6251;SDS011;3159;52.414;9.784;2022-11-06T02:53:24;7.10;;;3.70;;
6251;SDS011;3159;52.414;9.784;2022-11-06T02:55:52;4.53;;;3.33;;
6251;SDS011;3159;52.414;9.784;2022-11-06T02:58:24;4.50;;;3.20;;
6251;SDS011;3159;52.414;9.784;2022-11-06T03:01:01;4.40;;;3.47;;
6251;SDS011;3159;52.414;9.784;2022-11-06T03:03:32;5.10;;;3.30;;
6251;SDS011;3159;52.414;9.784;2022-11-06T03:06:02;5.73;;;3.50;;
6251;SDS011;3159;52.414;9.784;2022-11-06T03:08:35;8.30;;;3.40;;
6251;SDS011;3159;52.414;9.784;2022-11-06T03:11:10;5.03;;;3.53;;
6251;SDS011;3159;52.414;9.784;2022-11-06T03:13:47;7.63;;;4.20;;
6251;SDS011;3159;52.414;9.784;2022-11-06T03:16:25;5.17;;;3.67;;
6251;SDS011;3159;52.414;9.784;2022-11-06T03:19:02;5.80;;;3.67;;
6251;SDS011;3159;52.414;9.784;2022-11-06T03:21:35;9.10;;;3.77;;
6251;SDS011;3159;52.414;9.784;2022-11-06T03:24:09;5.07;;;3.57;;
6251;SDS011;3159;52.414;9.784;2022-11-06T03:26:42;5.67;;;4.20;;
6251;SDS011;3159;52.414;9.784;2022-11-06T03:29:13;4.27;;;3.63;;
6251;SDS011;3159;52.414;9.784;2022-11-06T03:31:45;4.83;;;3.90;;
6251;SDS011;3159;52.414;9.784;2022-11-06T03:34:16;7.97;;;4.10;;
6251;SDS011;3159;52.414;9.784;2022-11-06T03:36:52;8.30;;;4.03;;
6251;SDS011;3159;52.414;9.784;2022-11-06T03:39:27;5.03;;;4.10;;
6251;SDS011;3159;52.414;9.784;2022-11-06T03:41:58;6.73;;;4.57;;
6251;SDS011;3159;52.414;9.784;2022-11-06T03:44:31;7.77;;;4.30;;
6251;SDS011;3159;52.414;9.784;2022-11-06T03:47:02;7.60;;;4.50;;
6251;SDS011;3159;52.414;9.784;2022-11-06T03:49:38;7.67;;;4.40;;
6251;SDS011;3159;52.414;9.784;2022-11-06T03:52:11;5.50;;;3.70;;
6251;SDS011;3159;52.414;9.784;2022-11-06T03:54:44;7.30;;;4.40;;
6251;SDS011;3159;52.414;9.784;2022-11-06T03:57:17;6.30;;;3.97;;
6251;SDS011;3159;52.414;9.784;2022-11-06T03:59:50;10.67;;;4.30;;
6251;SDS011;3159;52.414;9.784;2022-11-06T04:02:21;6.17;;;4.50;;
6251;SDS011;3159;52.414;9.784;2022-11-06T04:04:50;7.27;;;4.23;;
6251;SDS011;3159;52.414;9.784;2022-11-06T04:07:20;5.60;;;4.30;;
6251;SDS011;3159;52.414;9.784;2022-11-06T04:09:51;9.37;;;4.47;;
6251;SDS011;3159;52.414;9.784;2022-11-06T04:12:38;7.23;;;3.60;;
6251;SDS011;3159;52.414;9.784;2022-11-06T04:15:29;5.33;;;3.60;;
6251;SDS011;3159;52.414;9.784;2022-11-06T04:17:58;5.83;;;3.87;;
6251;SDS011;3159;52.414;9.784;2022-11-06T04:20:25;9.73;;;4.50;;
6251;SDS011;3159;52.414;9.784;2022-11-06T04:23:19;6.13;;;3.83;;
6251;SDS011;3159;52.414;9.784;2022-11-06T04:25:58;7.03;;;4.20;;
6251;SDS011;3159;52.414;9.784;2022-11-06T04:28:50;6.13;;;4.07;;
6251;SDS011;3159;52.414;9.784;2022-11-06T04:31:24;5.87;;;3.50;;
6251;SDS011;3159;52.414;9.784;2022-11-06T04:33:59;5.73;;;3.73;;
6251;SDS011;3159;52.414;9.784;2022-11-06T04:36:37;5.97;;;3.60;;
6251;SDS011;3159;52.414;9.784;2022-11-06T04:39:11;7.63;;;3.47;;
6251;SDS011;3159;52.414;9.784;2022-11-06T04:41:44;5.67;;;3.43;;
6251;SDS011;3159;52.414;9.784;2022-11-06T04:44:18;8.27;;;3.73;;
6251;SDS011;3159;52.414;9.784;2022-11-06T04:46:54;5.07;;;3.60;;
6251;SDS011;3159;52.414;9.784;2022-11-06T04:49:25;5.03;;;3.17;;
6251;SDS011;3159;52.414;9.784;2022-11-06T04:51:54;7.77;;;3.93;;
6251;SDS011;3159;52.414;9.784;2022-11-06T04:54:22;4.90;;;3.17;;
6251;SDS011;3159;52.414;9.784;2022-11-06T04:56:50;8.17;;;3.23;;
6251;SDS011;3159;52.414;9.784;2022-11-06T04:59:21;5.73;;;3.37;;
6251;SDS011;3159;52.414;9.784;2022-11-06T05:01:49;6.03;;;3.50;;
6251;SDS011;3159;52.414;9.784;2022-11-06T05:04:18;5.47;;;3.77;;
6251;SDS011;3159;52.414;9.784;2022-11-06T05:06:45;6.87;;;3.77;;
6251;SDS011;3159;52.414;9.784;2022-11-06T05:09:12;8.37;;;3.93;;
6251;SDS011;3159;52.414;9.784;2022-11-06T05:11:39;5.20;;;3.60;;
6251;SDS011;3159;52.414;9.784;2022-11-06T05:14:05;5.67;;;2.90;;
6251;SDS011;3159;52.414;9.784;2022-11-06T05:16:33;5.27;;;3.60;;
6251;SDS011;3159;52.414;9.784;2022-11-06T05:18:59;4.90;;;3.50;;
6251;SDS011;3159;52.414;9.784;2022-11-06T05:21:28;5.13;;;3.53;;
6251;SDS011;3159;52.414;9.784;2022-11-06T05:24:12;5.53;;;3.50;;
6251;SDS011;3159;52.414;9.784;2022-11-06T05:26:39;8.87;;;3.77;;
6251;SDS011;3159;52.414;9.784;2022-11-06T05:29:06;6.60;;;3.37;;
6251;SDS011;3159;52.414;9.784;2022-11-06T05:31:33;5.13;;;3.20;;
6251;SDS011;3159;52.414;9.784;2022-11-06T05:34:00;4.33;;;2.90;;
6251;SDS011;3159;52.414;9.784;2022-11-06T05:36:28;5.00;;;3.30;;
6251;SDS011;3159;52.414;9.784;2022-11-06T05:38:55;5.90;;;3.40;;
6251;SDS011;3159;52.414;9.784;2022-11-06T05:41:21;6.17;;;3.40;;
6251;SDS011;3159;52.414;9.784;2022-11-06T05:43:48;4.50;;;3.10;;
6251;SDS011;3159;52.414;9.784;2022-11-06T05:46:15;6.20;;;3.10;;
6251;SDS011;3159;52.414;9.784;2022-11-06T05:48:42;6.60;;;3.53;;
6251;SDS011;3159;52.414;9.784;2022-11-06T05:51:09;8.60;;;3.63;;
6251;SDS011;3159;52.414;9.784;2022-11-06T05:53:37;6.43;;;3.50;;
6251;SDS011;3159;52.414;9.784;2022-11-06T05:56:04;5.53;;;3.33;;
6251;SDS011;3159;52.414;9.784;2022-11-06T05:58:32;6.90;;;3.57;;
6251;SDS011;3159;52.414;9.784;2022-11-06T06:00:59;4.40;;;3.50;;
6251;SDS011;3159;52.414;9.784;2022-11-06T06:03:26;4.27;;;2.97;;
6251;SDS011;3159;52.414;9.784;2022-11-06T06:05:53;6.77;;;3.90;;
6251;SDS011;3159;52.414;9.784;2022-11-06T06:08:20;7.30;;;3.57;;
6251;SDS011;3159;52.414;9.784;2022-11-06T06:10:48;7.40;;;3.60;;
6251;SDS011;3159;52.414;9.784;2022-11-06T06:13:15;6.00;;;3.40;;
6251;SDS011;3159;52.414;9.784;2022-11-06T06:15:42;7.90;;;3.43;;
6251;SDS011;3159;52.414;9.784;2022-11-06T06:18:10;5.07;;;4.07;;
6251;SDS011;3159;52.414;9.784;2022-11-06T06:20:37;7.60;;;3.47;;
6251;SDS011;3159;52.414;9.784;2022-11-06T06:23:04;9.37;;;3.73;;
6251;SDS011;3159;52.414;9.784;2022-11-06T06:25:31;6.23;;;3.53;;
6251;SDS011;3159;52.414;9.784;2022-11-06T06:28:00;7.10;;;3.83;;
6251;SDS011;3159;52.414;9.784;2022-11-06T06:30:26;5.70;;;3.93;;
6251;SDS011;3159;52.414;9.784;2022-11-06T06:32:53;5.13;;;3.50;;
6251;SDS011;3159;52.414;9.784;2022-11-06T06:35:20;5.73;;;3.53;;
6251;SDS011;3159;52.414;9.784;2022-11-06T06:37:51;4.47;;;3.57;;
6251;SDS011;3159;52.414;9.784;2022-11-06T06:40:18;9.40;;;4.13;;
6251;SDS011;3159;52.414;9.784;2022-11-06T06:42:45;7.57;;;3.77;;
6251;SDS011;3159;52.414;9.784;2022-11-06T06:45:14;4.60;;;3.73;;
6251;SDS011;3159;52.414;9.784;2022-11-06T06:47:41;5.33;;;3.70;;
6251;SDS011;3159;52.414;9.784;2022-11-06T06:50:08;8.03;;;3.97;;
6251;SDS011;3159;52.414;9.784;2022-11-06T06:52:35;7.67;;;4.10;;
6251;SDS011;3159;52.414;9.784;2022-11-06T06:55:02;8.33;;;4.07;;
6251;SDS011;3159;52.414;9.784;2022-11-06T06:57:29;8.70;;;5.20;;
6251;SDS011;3159;52.414;9.784;2022-11-06T06:59:56;7.13;;;3.90;;
6251;SDS011;3159;52.414;9.784;2022-11-06T07:02:24;7.87;;;4.23;;
6251;SDS011;3159;52.414;9.784;2022-11-06T07:04:51;7.80;;;4.50;;
6251;SDS011;3159;52.414;9.784;2022-11-06T07:07:17;5.57;;;3.97;;
6251;SDS011;3159;52.414;9.784;2022-11-06T07:09:44;7.33;;;4.03;;
6251;SDS011;3159;52.414;9.784;2022-11-06T07:12:11;6.93;;;4.20;;
6251;SDS011;3159;52.414;9.784;2022-11-06T07:14:38;6.80;;;4.30;;
6251;SDS011;3159;52.414;9.784;2022-11-06T07:17:05;10.07;;;4.70;;
6251;SDS011;3159;52.414;9.784;2022-11-06T07:19:33;7.53;;;4.77;;
6251;SDS011;3159;52.414;9.784;2022-11-06T07:22:00;7.40;;;4.50;;
6251;SDS011;3159;52.414;9.784;2022-11-06T07:24:26;8.43;;;4.73;;
6251;SDS011;3159;52.414;9.784;2022-11-06T07:26:53;7.30;;;4.97;;
6251;SDS011;3159;52.414;9.784;2022-11-06T07:29:20;8.97;;;5.00;;
6251;SDS011;3159;52.414;9.784;2022-11-06T07:31:47;6.73;;;4.50;;
6251;SDS011;3159;52.414;9.784;2022-11-06T07:34:14;10.90;;;5.70;;
6251;SDS011;3159;52.414;9.784;2022-11-06T07:36:42;6.50;;;4.60;;
6251;SDS011;3159;52.414;9.784;2022-11-06T07:39:09;8.27;;;4.90;;
6251;SDS011;3159;52.414;9.784;2022-11-06T07:41:36;6.60;;;4.63;;
6251;SDS011;3159;52.414;9.784;2022-11-06T07:44:03;6.40;;;4.50;;
6251;SDS011;3159;52.414;9.784;2022-11-06T07:46:30;7.60;;;4.70;;
6251;SDS011;3159;52.414;9.784;2022-11-06T07:48:57;7.83;;;5.17;;
6251;SDS011;3159;52.414;9.784;2022-11-06T07:51:24;6.43;;;4.60;;
6251;SDS011;3159;52.414;9.784;2022-11-06T07:53:52;6.87;;;4.13;;
6251;SDS011;3159;52.414;9.784;2022-11-06T07:56:19;8.57;;;4.83;;
6251;SDS011;3159;52.414;9.784;2022-11-06T07:58:46;9.77;;;5.33;;
6251;SDS011;3159;52.414;9.784;2022-11-06T08:01:13;7.47;;;4.57;;
6251;SDS011;3159;52.414;9.784;2022-11-06T08:03:42;8.57;;;4.80;;
6251;SDS011;3159;52.414;9.784;2022-11-06T08:06:09;7.37;;;4.37;;
6251;SDS011;3159;52.414;9.784;2022-11-06T08:08:36;8.83;;;5.17;;
6251;SDS011;3159;52.414;9.784;2022-11-06T08:11:05;8.30;;;5.00;;
6251;SDS011;3159;52.414;9.784;2022-11-06T08:13:34;7.00;;;4.80;;
6251;SDS011;3159;52.414;9.784;2022-11-06T08:16:02;10.07;;;5.23;;
6251;SDS011;3159;52.414;9.784;2022-11-06T08:18:30;8.20;;;5.97;;
6251;SDS011;3159;52.414;9.784;2022-11-06T08:20:57;6.13;;;4.57;;
6251;SDS011;3159;52.414;9.784;2022-11-06T08:23:24;6.33;;;4.33;;
6251;SDS011;3159;52.414;9.784;2022-11-06T08:25:52;7.60;;;4.33;;
6251;SDS011;3159;52.414;9.784;2022-11-06T08:28:21;9.37;;;4.53;;
6251;SDS011;3159;52.414;9.784;2022-11-06T08:30:48;6.97;;;4.50;;
6251;SDS011;3159;52.414;9.784;2022-11-06T08:33:15;8.73;;;4.70;;
6251;SDS011;3159;52.414;9.784;2022-11-06T08:35:42;8.90;;;4.77;;
6251;SDS011;3159;52.414;9.784;2022-11-06T08:38:09;7.47;;;4.40;;
6251;SDS011;3159;52.414;9.784;2022-11-06T08:40:36;10.10;;;4.90;;
6251;SDS011;3159;52.414;9.784;2022-11-06T08:43:04;8.53;;;4.80;;
6251;SDS011;3159;52.414;9.784;2022-11-06T08:45:35;7.47;;;4.73;;
6251;SDS011;3159;52.414;9.784;2022-11-06T08:48:03;6.63;;;4.40;;
6251;SDS011;3159;52.414;9.784;2022-11-06T08:50:31;6.93;;;4.13;;
6251;SDS011;3159;52.414;9.784;2022-11-06T08:52:59;6.53;;;4.87;;
6251;SDS011;3159;52.414;9.784;2022-11-06T08:55:28;5.87;;;3.70;;
6251;SDS011;3159;52.414;9.784;2022-11-06T08:57:55;5.13;;;4.37;;
6251;SDS011;3159;52.414;9.784;2022-11-06T09:00:22;6.70;;;4.13;;
6251;SDS011;3159;52.414;9.784;2022-11-06T09:02:56;7.37;;;4.37;;
6251;SDS011;3159;52.414;9.784;2022-11-06T09:05:23;6.83;;;3.83;;
6251;SDS011;3159;52.414;9.784;2022-11-06T09:07:50;7.53;;;4.70;;
6251;SDS011;3159;52.414;9.784;2022-11-06T09:10:16;6.40;;;4.30;;
6251;SDS011;3159;52.414;9.784;2022-11-06T09:12:44;5.97;;;4.17;;
6251;SDS011;3159;52.414;9.784;2022-11-06T09:15:10;6.67;;;4.43;;
6251;SDS011;3159;52.414;9.784;2022-11-06T09:17:40;5.17;;;3.53;;
6251;SDS011;3159;52.414;9.784;2022-11-06T09:20:10;7.80;;;3.90;;
6251;SDS011;3159;52.414;9.784;2022-11-06T09:22:38;6.93;;;3.93;;
6251;SDS011;3159;52.414;9.784;2022-11-06T09:25:05;6.83;;;3.67;;
6251;SDS011;3159;52.414;9.784;2022-11-06T09:27:39;7.20;;;4.53;;
6251;SDS011;3159;52.414;9.784;2022-11-06T09:30:07;8.50;;;4.00;;
6251;SDS011;3159;52.414;9.784;2022-11-06T09:32:35;6.27;;;3.87;;
6251;SDS011;3159;52.414;9.784;2022-11-06T09:35:02;6.87;;;3.90;;
6251;SDS011;3159;52.414;9.784;2022-11-06T09:37:31;4.73;;;3.40;;
6251;SDS011;3159;52.414;9.784;2022-11-06T09:39:58;5.53;;;3.90;;
6251;SDS011;3159;52.414;9.784;2022-11-06T09:42:28;5.03;;;3.90;;
6251;SDS011;3159;52.414;9.784;2022-11-06T09:45:15;5.97;;;3.80;;
6251;SDS011;3159;52.414;9.784;2022-11-06T09:47:46;4.00;;;3.60;;
6251;SDS011;3159;52.414;9.784;2022-11-06T09:50:19;6.77;;;3.57;;
6251;SDS011;3159;52.414;9.784;2022-11-06T09:52:50;8.80;;;4.17;;
6251;SDS011;3159;52.414;9.784;2022-11-06T09:55:20;6.70;;;4.30;;
6251;SDS011;3159;52.414;9.784;2022-11-06T09:57:50;7.17;;;3.37;;
6251;SDS011;3159;52.414;9.784;2022-11-06T10:00:21;7.53;;;3.80;;
6251;SDS011;3159;52.414;9.784;2022-11-06T10:02:48;5.50;;;3.43;;
6251;SDS011;3159;52.414;9.784;2022-11-06T10:05:20;5.43;;;3.73;;
6251;SDS011;3159;52.414;9.784;2022-11-06T10:07:52;5.63;;;3.20;;
6251;SDS011;3159;52.414;9.784;2022-11-06T10:10:24;5.33;;;3.00;;
6251;SDS011;3159;52.414;9.784;2022-11-06T10:15:43;5.27;;;3.00;;
6251;SDS011;3159;52.414;9.784;2022-11-06T10:18:18;6.83;;;2.97;;
6251;SDS011;3159;52.414;9.784;2022-11-06T10:20:53;5.87;;;3.50;;
6251;SDS011;3159;52.414;9.784;2022-11-06T10:23:28;5.60;;;3.30;;
6251;SDS011;3159;52.414;9.784;2022-11-06T10:26:03;6.00;;;3.40;;
6251;SDS011;3159;52.414;9.784;2022-11-06T10:31:48;5.37;;;2.83;;
6251;SDS011;3159;52.414;9.784;2022-11-06T10:34:26;4.27;;;2.80;;
6251;SDS011;3159;52.414;9.784;2022-11-06T10:36:58;5.73;;;2.90;;
6251;SDS011;3159;52.414;9.784;2022-11-06T10:39:31;3.43;;;2.77;;
6251;SDS011;3159;52.414;9.784;2022-11-06T10:42:02;5.73;;;3.13;;
6251;SDS011;3159;52.414;9.784;2022-11-06T10:44:35;5.63;;;3.17;;
6251;SDS011;3159;52.414;9.784;2022-11-06T10:47:05;6.70;;;3.90;;
6251;SDS011;3159;52.414;9.784;2022-11-06T10:49:39;6.17;;;4.03;;
6251;SDS011;3159;52.414;9.784;2022-11-06T10:52:15;5.87;;;3.97;;
6251;SDS011;3159;52.414;9.784;2022-11-06T10:54:58;8.43;;;4.37;;
6251;SDS011;3159;52.414;9.784;2022-11-06T10:57:35;8.13;;;4.13;;
6251;SDS011;3159;52.414;9.784;2022-11-06T11:00:07;5.73;;;4.40;;
6251;SDS011;3159;52.414;9.784;2022-11-06T11:02:38;8.60;;;4.03;;
6251;SDS011;3159;52.414;9.784;2022-11-06T11:05:10;7.67;;;3.67;;
6251;SDS011;3159;52.414;9.784;2022-11-06T11:07:38;5.37;;;3.20;;
6251;SDS011;3159;52.414;9.784;2022-11-06T11:10:26;5.60;;;3.53;;
6251;SDS011;3159;52.414;9.784;2022-11-06T11:12:55;5.97;;;3.17;;
6251;SDS011;3159;52.414;9.784;2022-11-06T11:15:24;5.43;;;3.30;;
6251;SDS011;3159;52.414;9.784;2022-11-06T11:18:08;5.83;;;3.40;;
6251;SDS011;3159;52.414;9.784;2022-11-06T11:20:42;5.97;;;3.00;;
6251;SDS011;3159;52.414;9.784;2022-11-06T11:23:14;4.17;;;3.00;;
6251;SDS011;3159;52.414;9.784;2022-11-06T11:25:45;6.60;;;3.17;;
6251;SDS011;3159;52.414;9.784;2022-11-06T11:30:59;6.47;;;3.40;;
6251;SDS011;3159;52.414;9.784;2022-11-06T11:33:31;6.83;;;4.23;;
6251;SDS011;3159;52.414;9.784;2022-11-06T11:35:58;3.90;;;3.47;;
6251;SDS011;3159;52.414;9.784;2022-11-06T11:38:27;5.37;;;3.90;;
6251;SDS011;3159;52.414;9.784;2022-11-06T11:41:03;5.67;;;3.50;;
6251;SDS011;3159;52.414;9.784;2022-11-06T11:43:32;6.57;;;3.33;;
6251;SDS011;3159;52.414;9.784;2022-11-06T11:46:00;3.73;;;2.63;;
6251;SDS011;3159;52.414;9.784;2022-11-06T11:48:39;4.20;;;2.47;;
6251;SDS011;3159;52.414;9.784;2022-11-06T11:51:11;6.40;;;2.70;;
6251;SDS011;3159;52.414;9.784;2022-11-06T11:53:41;4.80;;;2.63;;
6251;SDS011;3159;52.414;9.784;2022-11-06T11:56:13;5.00;;;2.90;;
6251;SDS011;3159;52.414;9.784;2022-11-06T11:58:46;4.00;;;2.73;;
6251;SDS011;3159;52.414;9.784;2022-11-06T12:01:15;3.80;;;2.63;;
6251;SDS011;3159;52.414;9.784;2022-11-06T12:03:44;5.67;;;2.83;;
6251;SDS011;3159;52.414;9.784;2022-11-06T12:06:16;5.53;;;2.97;;
6251;SDS011;3159;52.414;9.784;2022-11-06T12:08:45;4.83;;;3.40;;
6251;SDS011;3159;52.414;9.784;2022-11-06T12:11:18;5.80;;;2.70;;
6251;SDS011;3159;52.414;9.784;2022-11-06T12:16:59;4.57;;;2.70;;
6251;SDS011;3159;52.414;9.784;2022-11-06T12:19:31;2.80;;;2.03;;
6251;SDS011;3159;52.414;9.784;2022-11-06T12:22:02;3.23;;;2.07;;
6251;SDS011;3159;52.414;9.784;2022-11-06T12:24:34;4.00;;;2.50;;
6251;SDS011;3159;52.414;9.784;2022-11-06T12:27:09;3.87;;;2.17;;
6251;SDS011;3159;52.414;9.784;2022-11-06T12:29:41;3.00;;;2.10;;
6251;SDS011;3159;52.414;9.784;2022-11-06T12:32:18;3.60;;;1.90;;
6251;SDS011;3159;52.414;9.784;2022-11-06T12:34:53;3.83;;;1.90;;
6251;SDS011;3159;52.414;9.784;2022-11-06T12:37:28;3.57;;;2.13;;
6251;SDS011;3159;52.414;9.784;2022-11-06T12:40:11;3.80;;;1.70;;
6251;SDS011;3159;52.414;9.784;2022-11-06T12:42:51;3.73;;;1.80;;
6251;SDS011;3159;52.414;9.784;2022-11-06T12:45:25;4.43;;;2.50;;
6251;SDS011;3159;52.414;9.784;2022-11-06T12:48:03;3.60;;;1.93;;
6251;SDS011;3159;52.414;9.784;2022-11-06T12:50:38;3.67;;;2.33;;
6251;SDS011;3159;52.414;9.784;2022-11-06T12:53:15;4.30;;;2.80;;
6251;SDS011;3159;52.414;9.784;2022-11-06T12:55:54;3.37;;;1.87;;
6251;SDS011;3159;52.414;9.784;2022-11-06T13:01:22;5.40;;;2.00;;
6251;SDS011;3159;52.414;9.784;2022-11-06T13:04:02;4.03;;;1.90;;
6251;SDS011;3159;52.414;9.784;2022-11-06T13:06:55;4.00;;;2.30;;
6251;SDS011;3159;52.414;9.784;2022-11-06T13:09:32;3.23;;;1.90;;
6251;SDS011;3159;52.414;9.784;2022-11-06T13:12:05;5.13;;;2.30;;
6251;SDS011;3159;52.414;9.784;2022-11-06T13:14:43;5.60;;;2.10;;
6251;SDS011;3159;52.414;9.784;2022-11-06T13:17:18;4.20;;;1.97;;
6251;SDS011;3159;52.414;9.784;2022-11-06T13:19:51;5.77;;;2.43;;
6251;SDS011;3159;52.414;9.784;2022-11-06T13:22:24;6.10;;;2.03;;
6251;SDS011;3159;52.414;9.784;2022-11-06T13:24:58;3.97;;;2.30;;
6251;SDS011;3159;52.414;9.784;2022-11-06T13:27:33;5.10;;;1.80;;
6251;SDS011;3159;52.414;9.784;2022-11-06T13:30:09;6.37;;;2.70;;
6251;SDS011;3159;52.414;9.784;2022-11-06T13:32:42;4.83;;;2.50;;
6251;SDS011;3159;52.414;9.784;2022-11-06T13:35:13;5.43;;;2.33;;
6251;SDS011;3159;52.414;9.784;2022-11-06T13:37:44;4.47;;;2.57;;
6251;SDS011;3159;52.414;9.784;2022-11-06T13:40:15;5.83;;;2.50;;
6251;SDS011;3159;52.414;9.784;2022-11-06T13:42:50;4.43;;;1.90;;
6251;SDS011;3159;52.414;9.784;2022-11-06T13:45:24;4.13;;;2.27;;
6251;SDS011;3159;52.414;9.784;2022-11-06T13:47:54;5.07;;;2.23;;
6251;SDS011;3159;52.414;9.784;2022-11-06T13:50:29;5.00;;;1.80;;
6251;SDS011;3159;52.414;9.784;2022-11-06T13:53:04;8.43;;;1.93;;
6251;SDS011;3159;52.414;9.784;2022-11-06T13:55:43;4.07;;;2.10;;
6251;SDS011;3159;52.414;9.784;2022-11-06T13:58:28;4.33;;;2.20;;
6251;SDS011;3159;52.414;9.784;2022-11-06T14:01:16;4.27;;;2.23;;
6251;SDS011;3159;52.414;9.784;2022-11-06T14:04:01;2.70;;;1.97;;
6251;SDS011;3159;52.414;9.784;2022-11-06T14:06:50;5.80;;;3.10;;
6251;SDS011;3159;52.414;9.784;2022-11-06T14:09:18;7.83;;;5.10;;
6251;SDS011;3159;52.414;9.784;2022-11-06T14:11:50;6.97;;;3.33;;
6251;SDS011;3159;52.414;9.784;2022-11-06T14:14:23;6.53;;;2.50;;
6251;SDS011;3159;52.414;9.784;2022-11-06T14:17:09;60.43;;;5.67;;
6251;SDS011;3159;52.414;9.784;2022-11-06T14:19:39;8.87;;;3.00;;
6251;SDS011;3159;52.414;9.784;2022-11-06T14:22:16;5.30;;;2.27;;
6251;SDS011;3159;52.414;9.784;2022-11-06T14:24:57;9.00;;;4.80;;
6251;SDS011;3159;52.414;9.784;2022-11-06T14:30:37;9.77;;;5.63;;
6251;SDS011;3159;52.414;9.784;2022-11-06T14:33:56;11.57;;;5.37;;
6251;SDS011;3159;52.414;9.784;2022-11-06T14:36:25;20.50;;;12.70;;
6251;SDS011;3159;52.414;9.784;2022-11-06T14:38:54;13.80;;;6.30;;
6251;SDS011;3159;52.414;9.784;2022-11-06T14:44:20;11.07;;;4.60;;
6251;SDS011;3159;52.414;9.784;2022-11-06T14:47:00;7.10;;;2.20;;
6251;SDS011;3159;52.414;9.784;2022-11-06T14:49:34;5.53;;;2.13;;
6251;SDS011;3159;52.414;9.784;2022-11-06T14:52:06;4.90;;;2.30;;
6251;SDS011;3159;52.414;9.784;2022-11-06T14:54:36;5.07;;;2.57;;
6251;SDS011;3159;52.414;9.784;2022-11-06T14:57:06;2.47;;;1.97;;
6251;SDS011;3159;52.414;9.784;2022-11-06T14:59:35;6.10;;;2.73;;
6251;SDS011;3159;52.414;9.784;2022-11-06T15:02:08;3.63;;;1.93;;
6251;SDS011;3159;52.414;9.784;2022-11-06T15:04:44;5.97;;;2.50;;
6251;SDS011;3159;52.414;9.784;2022-11-06T15:07:33;5.23;;;1.73;;
6251;SDS011;3159;52.414;9.784;2022-11-06T15:13:25;3.23;;;1.90;;
6251;SDS011;3159;52.414;9.784;2022-11-06T15:15:55;4.27;;;2.07;;
6251;SDS011;3159;52.414;9.784;2022-11-06T15:18:28;3.43;;;2.00;;
6251;SDS011;3159;52.414;9.784;2022-11-06T15:21:01;4.73;;;2.23;;
6251;SDS011;3159;52.414;9.784;2022-11-06T15:23:31;16.40;;;2.40;;
6251;SDS011;3159;52.414;9.784;2022-11-06T15:26:12;5.63;;;2.57;;
6251;SDS011;3159;52.414;9.784;2022-11-06T15:28:44;4.63;;;2.27;;
6251;SDS011;3159;52.414;9.784;2022-11-06T15:31:15;4.33;;;2.10;;
6251;SDS011;3159;52.414;9.784;2022-11-06T15:33:49;3.73;;;2.20;;
6251;SDS011;3159;52.414;9.784;2022-11-06T15:36:21;8.83;;;5.20;;
6251;SDS011;3159;52.414;9.784;2022-11-06T15:38:49;9.20;;;5.60;;
6251;SDS011;3159;52.414;9.784;2022-11-06T15:41:17;8.63;;;5.67;;
6251;SDS011;3159;52.414;9.784;2022-11-06T15:43:46;5.73;;;2.60;;
6251;SDS011;3159;52.414;9.784;2022-11-06T15:46:20;8.13;;;3.50;;
6251;SDS011;3159;52.414;9.784;2022-11-06T15:49:04;4.80;;;3.93;;
6251;SDS011;3159;52.414;9.784;2022-11-06T15:51:36;5.97;;;4.30;;
6251;SDS011;3159;52.414;9.784;2022-11-06T15:54:04;12.23;;;9.50;;
6251;SDS011;3159;52.414;9.784;2022-11-06T15:56:32;8.97;;;5.53;;
6251;SDS011;3159;52.414;9.784;2022-11-06T15:59:08;10.93;;;8.33;;
6251;SDS011;3159;52.414;9.784;2022-11-06T16:01:37;24.90;;;15.40;;
6251;SDS011;3159;52.414;9.784;2022-11-06T16:04:05;9.13;;;6.80;;
6251;SDS011;3159;52.414;9.784;2022-11-06T16:06:38;9.83;;;5.00;;